Impacts METAR Board
IDs:

KLAX - Los Angeles Intl, CA, US

Updated at: 1600 UTC 20 Aug 2019
Potential Impact None Slight Moderate High
Time 20/04Z 20/05Z 20/06Z 20/07Z 20/08Z 20/09Z 20/10Z 20/11Z 20/12Z 20/13Z 20/14Z 20/15Z 20/16Z
Temp68 68 69 69 68 68 67 67 66 67 67 70 73
Dewpt61 61 61 61 61 62 61 61 60 62 63 63 62
Altim29.90 29.91 29.91 29.91 29.91 29.91 29.91 29.92 29.93 29.94 29.94 29.95 29.95
VIS10 10 10 10 10 10 10 10 10 10 10 10 10
CIG-- -- -- -- -- -- -- -- -- 11 -- -- --
CoverCLRCLRFEWCLRFEWFEWFEWFEWFEWBKNSCTFEWFEW
FltCatVFRVFRVFRVFRVFRVFRVFRVFRVFRMVFRVFRVFRVFR
WX--------------------------
WDir24023024017014000220019011000
WSpd8 6 4 4 5 0 0 3 0 3 3 0 3
WGst-- -- -- -- -- -- -- -- -- -- -- -- --
Raw hourly METARs
KLAX 200353Z 24008KT 10SM CLR 20/16 A2990 RMK AO2 SLP123 T02000161
KLAX 200453Z 23006KT 10SM CLR 20/16 A2991 RMK AO2 SLP127 T02000161
KLAX 200553Z 24004KT 10SM FEW004 21/16 A2991 RMK AO2 SLP126 FU FEW004 T02060161 10228 20200 50004
KLAX 200653Z 17004KT 10SM CLR 21/16 A2991 RMK AO2 SLP127 T02060161
KLAX 200753Z 14005KT 10SM FEW010 FEW015 20/16 A2991 RMK AO2 SLP126 T02000161 402500189
KLAX 200853Z 00000KT 10SM FEW010 FEW015 20/17 A2991 RMK AO2 SLP126 T02000167 51000
KLAX 200953Z 00000KT 10SM FEW014 19/16 A2991 RMK AO2 SLP126 T01940161
KLAX 201053Z 22003KT 10SM FEW014 19/16 A2992 RMK AO2 SLP129 T01940161
KLAX 201153Z 00000KT 10SM FEW011 19/16 A2993 RMK AO2 SLP133 T01890156 10206 20189 53007
KLAX 201253Z 19003KT 10SM FEW008 BKN011 BKN220 19/17 A2994 RMK AO2 SLP136 T01940167
KLAX 201353Z 11003KT 10SM FEW009 FEW012 SCT250 19/17 A2994 RMK AO2 SLP138 T01940172
KLAX 201453Z 00000KT 10SM FEW009 FEW250 21/17 A2995 RMK AO2 SLP140 T02110172 53007
KLAX 201553Z VRB03KT 10SM FEW010 23/17 A2995 RMK AO2 SLP139 T02280167



Page loaded:  16:12 UTC  |   09:12 AM Pacific  |   10:12 AM Mountain  |   11:12 AM Central  |   12:12 PM Eastern

 

ADVISORIES

FORECASTS

FORECASTS

OBSERVATIONS

USER TOOLS

ABOUT US